createdAt,value
2018-09-24T00:00:59.733Z,88.84
2018-09-24T00:01:59.742Z,89.12
2018-09-24T00:02:59.820Z,89.31
2018-09-24T00:03:59.940Z,89.60
2018-09-24T00:04:59.744Z,89.50
2018-09-24T00:05:59.810Z,89.22
2018-09-24T00:06:59.781Z,89.31
2018-09-24T00:07:59.781Z,89.22
2018-09-24T00:08:59.781Z,89.31
2018-09-24T00:09:59.810Z,89.60
2018-09-24T00:10:59.800Z,88.64
2018-09-24T00:11:59.799Z,89.12
2018-09-24T00:12:59.796Z,89.40
2018-09-24T00:13:59.817Z,89.31
2018-09-24T00:14:59.864Z,89.79
2018-09-24T00:15:59.822Z,89.50
2018-09-24T00:16:59.821Z,89.40
2018-09-24T00:17:59.845Z,89.50
2018-09-24T00:18:59.880Z,88.74
2018-09-24T00:19:59.857Z,88.74
2018-09-24T00:20:59.878Z,88.45
2018-09-24T00:21:59.857Z,89.03
2018-09-24T00:22:59.864Z,88.64
2018-09-24T00:23:59.861Z,88.45
2018-09-24T00:24:59.885Z,88.17
2018-09-24T00:25:59.926Z,88.26
2018-09-24T00:26:59.880Z,88.26
2018-09-24T00:27:59.927Z,88.84
2018-09-24T00:28:59.945Z,88.26
2018-09-24T00:29:59.892Z,88.74
2018-09-24T00:30:59.991Z,88.55
2018-09-24T00:31:59.907Z,88.45
2018-09-24T00:32:59.943Z,88.36
2018-09-24T00:33:59.923Z,88.55
2018-09-24T00:34:59.932Z,87.88
2018-09-24T00:35:59.957Z,88.45
2018-09-24T00:36:59.938Z,88.55
2018-09-24T00:37:59.941Z,88.17
2018-09-24T00:38:59.977Z,88.36
2018-09-24T00:39:59.990Z,88.26
2018-09-24T00:40:59.983Z,88.36
2018-09-24T00:41:59.978Z,88.55
2018-09-24T00:42:59.987Z,88.74
2018-09-24T00:43:59.996Z,88.17
2018-09-24T00:45:00.019Z,88.45
2018-09-24T00:46:00.033Z,88.07
2018-09-24T00:47:00.017Z,88.26
2018-09-24T00:48:00.023Z,88.17
2018-09-24T00:49:00.017Z,88.17
2018-09-24T00:50:00.021Z,87.98
2018-09-24T00:51:00.078Z,87.40
2018-09-24T00:52:00.045Z,87.98
2018-09-24T00:53:00.065Z,87.60
2018-09-24T00:54:00.066Z,87.79
2018-09-24T00:55:00.075Z,87.17
2018-09-24T00:56:00.055Z,87.55
2018-09-24T00:57:00.148Z,87.27
2018-09-24T00:58:00.076Z,87.55
2018-09-24T00:59:00.081Z,87.65
2018-09-24T01:00:00.081Z,87.79
2018-09-24T01:01:00.114Z,87.74
2018-09-24T01:02:00.237Z,87.21
2018-09-24T01:03:00.134Z,87.36
2018-09-24T01:04:00.144Z,87.93
2018-09-24T01:05:00.110Z,87.74
2018-09-24T01:06:00.136Z,87.55
2018-09-24T01:07:00.145Z,87.46
2018-09-24T01:08:00.128Z,87.65
2018-09-24T01:09:00.175Z,88.12
2018-09-24T01:10:00.178Z,87.07
2018-09-24T01:11:00.159Z,87.74
2018-09-24T01:12:00.155Z,87.36
2018-09-24T01:13:00.208Z,87.74
2018-09-24T01:14:00.165Z,87.36
2018-09-24T01:15:00.176Z,87.17
2018-09-24T01:16:00.208Z,87.65
2018-09-24T01:17:00.194Z,87.46
2018-09-24T01:18:00.220Z,87.84
2018-09-24T01:19:00.196Z,87.27
2018-09-24T01:20:00.234Z,87.46
2018-09-24T01:21:00.219Z,87.55
2018-09-24T01:22:00.322Z,87.74
2018-09-24T01:23:00.218Z,87.65
2018-09-24T01:24:00.227Z,87.36
2018-09-24T01:25:00.245Z,87.65
2018-09-24T01:26:00.242Z,87.93
2018-09-24T01:27:00.248Z,87.31
2018-09-24T01:28:00.290Z,86.98
2018-09-24T01:29:00.307Z,87.17
2018-09-24T01:30:00.283Z,87.65
2018-09-24T01:31:00.282Z,86.79
2018-09-24T01:32:00.293Z,86.98
2018-09-24T01:33:00.302Z,86.88
2018-09-24T01:34:00.306Z,86.69
2018-09-24T01:35:00.353Z,86.88
2018-09-24T01:36:00.318Z,87.27
2018-09-24T01:37:00.314Z,87.46
2018-09-24T01:38:00.346Z,86.98
2018-09-24T01:39:00.385Z,86.88
2018-09-24T01:40:00.345Z,86.51
2018-09-24T01:41:00.343Z,86.51
2018-09-24T01:42:00.347Z,86.51
2018-09-24T01:43:00.362Z,86.41
2018-09-24T01:44:00.369Z,86.60
2018-09-24T01:45:00.515Z,86.41
2018-09-24T01:46:00.374Z,86.60
2018-09-24T01:47:00.371Z,86.51
2018-09-24T01:48:00.415Z,86.98
2018-09-24T01:49:00.387Z,86.51
2018-09-24T01:50:00.577Z,86.32
2018-09-24T01:51:00.395Z,86.60
2018-09-24T01:52:00.402Z,86.41
2018-09-24T01:53:00.413Z,86.60
2018-09-24T01:54:00.413Z,87.17
2018-09-24T01:55:00.414Z,85.64
2018-09-24T01:56:00.475Z,86.60
2018-09-24T01:57:00.439Z,86.22
2018-09-24T01:58:00.441Z,86.98
2018-09-24T01:59:00.475Z,86.51
2018-09-24T02:00:00.506Z,86.32
2018-09-24T02:01:00.482Z,86.32
2018-09-24T02:02:00.487Z,86.12
2018-09-24T02:03:00.546Z,86.51
2018-09-24T02:04:00.481Z,86.60
2018-09-24T02:05:00.629Z,86.22
2018-09-24T02:06:00.502Z,86.79
2018-09-24T02:07:00.551Z,86.79
2018-09-24T02:08:00.513Z,86.51
2018-09-24T02:09:00.515Z,86.60
2018-09-24T02:10:00.511Z,86.51
2018-09-24T02:11:00.529Z,86.79
2018-09-24T02:12:00.534Z,86.22
2018-09-24T02:13:00.549Z,85.93
2018-09-24T02:14:00.549Z,86.41
2018-09-24T02:15:00.565Z,86.51
2018-09-24T02:16:00.557Z,86.32
2018-09-24T02:17:01.140Z,86.69
2018-09-24T02:18:00.585Z,86.41
2018-09-24T02:19:00.581Z,86.41
2018-09-24T02:20:00.611Z,86.79
2018-09-24T02:21:00.593Z,86.79
2018-09-24T02:22:00.598Z,86.32
2018-09-24T02:23:00.596Z,86.22
2018-09-24T02:24:00.611Z,86.22
2018-09-24T02:25:00.615Z,86.32
2018-09-24T02:26:00.649Z,86.41
2018-09-24T02:27:00.612Z,85.84
2018-09-24T02:28:00.618Z,85.46
2018-09-24T02:29:00.652Z,85.84
2018-09-24T02:30:00.798Z,86.03
2018-09-24T02:31:00.636Z,85.55
2018-09-24T02:32:00.717Z,86.12
2018-09-24T02:33:00.670Z,86.03
2018-09-24T02:34:00.655Z,85.17
2018-09-24T02:35:00.682Z,84.98
2018-09-24T02:36:00.694Z,84.88
2018-09-24T02:37:00.734Z,85.74
2018-09-24T02:38:00.683Z,85.84
2018-09-24T02:39:00.710Z,85.64
2018-09-24T02:40:00.737Z,85.08
2018-09-24T02:41:00.699Z,85.84
2018-09-24T02:42:00.735Z,85.64
2018-09-24T02:43:00.756Z,85.84
2018-09-24T02:44:00.714Z,85.74
2018-09-24T02:45:00.724Z,85.64
2018-09-24T02:46:00.726Z,85.27
2018-09-24T02:47:00.770Z,85.08
2018-09-24T02:48:00.783Z,84.69
2018-09-24T02:49:00.743Z,85.27
2018-09-24T02:50:00.754Z,85.55
2018-09-24T02:51:00.757Z,84.69
2018-09-24T02:52:00.765Z,85.17
2018-09-24T02:53:00.822Z,85.08
2018-09-24T02:54:00.777Z,85.17
2018-09-24T02:55:00.781Z,84.88
2018-09-24T02:56:00.787Z,85.17
2018-09-24T02:57:00.795Z,84.41
2018-09-24T02:58:00.838Z,84.69
2018-09-24T02:59:00.820Z,84.69
2018-09-24T03:00:00.810Z,85.36
2018-09-24T03:01:00.824Z,84.79
2018-09-24T03:02:00.828Z,84.60
2018-09-24T03:03:00.866Z,85.36
2018-09-24T03:04:00.833Z,85.17
2018-09-24T03:05:00.849Z,85.08
2018-09-24T03:06:00.900Z,85.17
2018-09-24T03:07:00.853Z,84.88
2018-09-24T03:08:00.881Z,84.98
2018-09-24T03:09:00.871Z,85.36
2018-09-24T03:10:00.890Z,85.08
2018-09-24T03:11:00.886Z,85.08
2018-09-24T03:12:00.935Z,84.98
2018-09-24T03:13:00.895Z,84.79
2018-09-24T03:14:00.904Z,84.31
2018-09-24T03:15:00.924Z,84.69
2018-09-24T03:16:00.916Z,83.84
2018-09-24T03:17:00.934Z,83.84
2018-09-24T03:18:00.944Z,84.12
2018-09-24T03:19:00.933Z,84.69
2018-09-24T03:20:00.982Z,84.50
2018-09-24T03:21:00.995Z,84.41
2018-09-24T03:22:00.950Z,84.69
2018-09-24T03:23:00.971Z,84.60
2018-09-24T03:24:00.978Z,84.41
2018-09-24T03:25:00.981Z,84.98
2018-09-24T03:26:01.034Z,84.79
2018-09-24T03:27:00.994Z,84.98
2018-09-24T03:28:00.985Z,84.79
2018-09-24T03:29:00.993Z,84.50
2018-09-24T03:30:01.013Z,84.03
2018-09-24T03:31:01.021Z,83.84
2018-09-24T03:32:01.038Z,83.74
2018-09-24T03:33:01.018Z,84.03
2018-09-24T03:34:01.024Z,84.31
2018-09-24T03:35:01.038Z,84.03
2018-09-24T03:36:01.054Z,84.03
2018-09-24T03:37:01.069Z,84.12
2018-09-24T03:38:01.055Z,83.84
2018-09-24T03:39:01.055Z,84.31
2018-09-24T03:40:01.106Z,84.41
2018-09-24T03:41:01.118Z,84.41
2018-09-24T03:42:01.082Z,84.12
2018-09-24T03:43:01.086Z,84.03
2018-09-24T03:44:01.096Z,83.84
2018-09-24T03:45:01.112Z,84.12
2018-09-24T03:46:01.093Z,83.65
2018-09-24T03:47:01.134Z,84.12
2018-09-24T03:48:01.101Z,84.31
2018-09-24T03:49:01.138Z,84.08
2018-09-24T03:50:01.124Z,84.08
2018-09-24T03:51:01.131Z,83.80
2018-09-24T03:52:01.153Z,84.98
2018-09-24T03:53:01.148Z,83.93
2018-09-24T03:54:01.138Z,83.80
2018-09-24T03:55:01.180Z,84.08
2018-09-24T03:56:01.145Z,83.89
2018-09-24T03:57:01.169Z,84.46
2018-09-24T03:58:01.176Z,83.84
2018-09-24T03:59:01.236Z,84.12
2018-09-24T04:00:01.199Z,83.84
2018-09-24T04:01:01.221Z,84.03
2018-09-24T04:02:01.223Z,83.51
2018-09-24T04:03:01.205Z,83.51
2018-09-24T04:04:01.196Z,84.08
2018-09-24T04:05:01.203Z,83.98
2018-09-24T04:06:01.237Z,84.08
2018-09-24T04:07:01.217Z,84.12
2018-09-24T04:08:01.259Z,83.80
2018-09-24T04:09:01.253Z,84.27
2018-09-24T04:10:01.282Z,83.70
2018-09-24T04:11:01.302Z,83.70
2018-09-24T04:12:01.239Z,83.51
2018-09-24T04:13:01.252Z,83.61
2018-09-24T04:14:01.257Z,83.70
2018-09-24T04:15:01.321Z,83.98
2018-09-24T04:16:01.286Z,83.89
2018-09-24T04:17:01.270Z,83.80
2018-09-24T04:18:01.409Z,83.98
2018-09-24T04:19:01.282Z,84.27
2018-09-24T04:20:01.290Z,83.32
2018-09-24T04:21:01.393Z,83.03
2018-09-24T04:22:01.301Z,83.61
2018-09-24T04:23:01.353Z,83.22
2018-09-24T04:24:01.357Z,83.51
2018-09-24T04:25:01.361Z,83.13
2018-09-24T04:26:01.389Z,83.70
2018-09-24T04:27:01.457Z,83.51
2018-09-24T04:28:01.385Z,83.61
2018-09-24T04:29:01.353Z,83.51
2018-09-24T04:30:01.477Z,83.70
2018-09-24T04:31:01.426Z,83.61
2018-09-24T04:32:01.378Z,83.61
2018-09-24T04:33:01.372Z,83.51
2018-09-24T04:34:01.409Z,83.41
2018-09-24T04:35:01.445Z,83.13
2018-09-24T04:36:01.497Z,84.17
2018-09-24T04:37:01.519Z,83.98
2018-09-24T04:38:01.406Z,83.80
2018-09-24T04:39:01.415Z,83.89
2018-09-24T04:40:01.431Z,83.03
2018-09-24T04:41:01.435Z,83.51
2018-09-24T04:42:01.435Z,83.61
2018-09-24T04:43:01.533Z,83.13
2018-09-24T04:44:01.448Z,83.61
2018-09-24T04:45:01.458Z,83.22
2018-09-24T04:46:01.497Z,83.13
2018-09-24T04:47:01.489Z,83.41
2018-09-24T04:48:01.499Z,83.41
2018-09-24T04:49:01.584Z,83.70
2018-09-24T04:50:01.532Z,83.51
2018-09-24T04:51:01.507Z,82.93
2018-09-24T04:52:01.556Z,83.70
2018-09-24T04:53:01.732Z,83.61
2018-09-24T04:54:01.549Z,83.70
2018-09-24T04:55:01.503Z,83.41
2018-09-24T04:56:01.665Z,83.51
2018-09-24T04:57:01.600Z,83.13
2018-09-24T04:58:01.550Z,83.13
2018-09-24T04:59:01.571Z,83.51
2018-09-24T05:00:01.569Z,83.13
2018-09-24T05:01:01.565Z,82.93
2018-09-24T05:02:01.573Z,83.51
2018-09-24T05:03:01.541Z,82.65
2018-09-24T05:04:01.576Z,82.18
2018-09-24T05:05:01.578Z,82.93
2018-09-24T05:06:01.587Z,82.93
2018-09-24T05:07:01.624Z,83.41
2018-09-24T05:08:01.581Z,83.22
2018-09-24T05:09:01.576Z,82.37
2018-09-24T05:10:01.607Z,82.93
2018-09-24T05:11:01.590Z,82.56
2018-09-24T05:12:01.595Z,82.56
2018-09-24T05:13:01.637Z,82.27
2018-09-24T05:14:01.606Z,81.98
2018-09-24T05:15:01.664Z,82.65
2018-09-24T05:16:01.657Z,82.08
2018-09-24T05:17:01.627Z,82.65
2018-09-24T05:18:01.627Z,82.84
2018-09-24T05:19:01.663Z,82.65
2018-09-24T05:20:01.649Z,82.46
2018-09-24T05:21:01.672Z,82.08
2018-09-24T05:22:01.661Z,82.46
2018-09-24T05:23:01.685Z,82.08
2018-09-24T05:24:01.706Z,82.37
2018-09-24T05:25:01.680Z,82.12
2018-09-24T05:26:01.703Z,82.18
2018-09-24T05:27:01.734Z,82.03
2018-09-24T05:28:01.691Z,82.18
2018-09-24T05:29:01.732Z,82.08
2018-09-24T05:30:01.706Z,81.98
2018-09-24T05:31:01.740Z,82.21
2018-09-24T05:32:01.747Z,81.89
2018-09-24T05:33:01.793Z,81.98
2018-09-24T05:34:01.753Z,81.98
2018-09-24T05:35:01.730Z,82.18
2018-09-24T05:36:01.742Z,82.12
2018-09-24T05:37:01.764Z,82.03
2018-09-24T05:38:01.786Z,81.93
2018-09-24T05:39:01.773Z,81.93
2018-09-24T05:40:01.773Z,81.84
2018-09-24T05:41:01.768Z,81.65
2018-09-24T05:42:01.822Z,81.36
2018-09-24T05:43:01.780Z,82.03
2018-09-24T05:44:01.791Z,81.55
2018-09-24T05:45:01.813Z,81.36
2018-09-24T05:46:01.802Z,81.46
2018-09-24T05:47:01.865Z,81.07
2018-09-24T05:48:01.856Z,81.07
2018-09-24T05:49:01.886Z,80.98
2018-09-24T05:50:01.842Z,80.79
2018-09-24T05:51:01.839Z,81.07
2018-09-24T05:52:01.877Z,80.98
2018-09-24T05:53:01.902Z,81.07
2018-09-24T05:54:01.853Z,80.98
2018-09-24T05:55:01.872Z,80.31
2018-09-24T05:56:01.887Z,80.02
2018-09-24T05:57:01.881Z,80.02
2018-09-24T05:58:01.880Z,81.07
2018-09-24T05:59:01.942Z,80.98
2018-09-24T06:00:01.891Z,80.22
2018-09-24T06:01:01.897Z,79.64
2018-09-24T06:02:01.904Z,80.31
2018-09-24T06:03:01.901Z,80.22
2018-09-24T06:04:01.959Z,80.88
2018-09-24T06:05:01.944Z,81.17
2018-09-24T06:06:01.934Z,80.31
2018-09-24T06:07:01.947Z,79.64
2018-09-24T06:08:01.951Z,79.74
2018-09-24T06:09:01.959Z,80.12
2018-09-24T06:10:01.965Z,79.78
2018-09-24T06:11:02.192Z,79.83
2018-09-24T06:12:02.135Z,78.88
2018-09-24T06:13:01.977Z,79.55
2018-09-24T06:14:02.003Z,78.78
2018-09-24T06:15:01.986Z,78.88
2018-09-24T06:16:02.014Z,79.17
2018-09-24T06:17:02.007Z,79.21
2018-09-24T06:18:02.025Z,78.69
2018-09-24T06:19:02.077Z,78.98
2018-09-24T06:20:02.078Z,78.78
2018-09-24T06:21:02.101Z,79.30
2018-09-24T06:22:02.061Z,78.83
2018-09-24T06:23:02.134Z,77.83
2018-09-24T06:24:02.075Z,78.35
2018-09-24T06:25:02.151Z,78.83
2018-09-24T06:26:02.076Z,78.25
2018-09-24T06:27:02.134Z,77.97
2018-09-24T06:28:02.169Z,78.16
2018-09-24T06:29:02.129Z,77.87
2018-09-24T06:30:02.094Z,77.87
2018-09-24T06:31:02.099Z,77.87
2018-09-24T06:32:02.107Z,78.16
2018-09-24T06:33:02.127Z,78.25
2018-09-24T06:34:02.643Z,77.49
2018-09-24T06:35:02.117Z,77.97
2018-09-24T06:36:02.652Z,78.16
2018-09-24T06:37:02.131Z,77.59
2018-09-24T06:38:02.152Z,77.78
2018-09-24T06:39:02.191Z,78.16
2018-09-24T06:40:02.179Z,77.40
2018-09-24T06:41:02.201Z,76.92
2018-09-24T06:42:02.164Z,76.73
2018-09-24T06:43:02.184Z,77.20
2018-09-24T06:44:02.181Z,77.30
2018-09-24T06:45:02.205Z,76.54
2018-09-24T06:46:02.191Z,76.54
2018-09-24T06:47:02.194Z,76.54
2018-09-24T06:48:02.204Z,76.54
2018-09-24T06:49:02.212Z,76.82
2018-09-24T06:50:02.272Z,76.73
2018-09-24T06:51:02.281Z,76.44
2018-09-24T06:52:02.230Z,76.54
2018-09-24T06:53:02.227Z,76.44
2018-09-24T06:54:02.237Z,76.64
2018-09-24T06:55:02.246Z,76.16
2018-09-24T06:56:02.249Z,76.54
2018-09-24T06:57:02.319Z,76.25
2018-09-24T06:58:02.302Z,75.59
2018-09-24T06:59:02.279Z,75.68
2018-09-24T07:00:02.272Z,76.06
2018-09-24T07:01:02.314Z,76.06
2018-09-24T07:02:02.319Z,75.68
2018-09-24T07:03:02.320Z,75.68
2018-09-24T07:04:02.315Z,75.30
2018-09-24T07:05:02.305Z,75.11
2018-09-24T07:06:02.341Z,74.92
2018-09-24T07:07:02.330Z,75.20
2018-09-24T07:08:02.348Z,75.30
2018-09-24T07:09:02.334Z,75.05
2018-09-24T07:10:02.363Z,75.43
2018-09-24T07:11:02.351Z,74.01
2018-09-24T07:12:02.356Z,74.38
2018-09-24T07:13:02.393Z,73.81
2018-09-24T07:14:02.395Z,73.81
2018-09-24T07:15:02.392Z,73.91
2018-09-24T07:16:02.380Z,74.29
2018-09-24T07:17:02.386Z,74.29
2018-09-24T07:18:02.441Z,74.29
2018-09-24T07:19:02.467Z,73.72
2018-09-24T07:20:02.410Z,74.19
2018-09-24T07:21:02.409Z,74.38
2018-09-24T07:22:02.437Z,74.19
2018-09-24T07:23:02.456Z,74.10
2018-09-24T07:24:02.444Z,74.10
2018-09-24T07:25:02.441Z,73.91
2018-09-24T07:26:02.496Z,73.91
2018-09-24T07:27:02.461Z,73.05
2018-09-24T07:28:02.579Z,74.10
2018-09-24T07:29:02.476Z,73.33
2018-09-24T07:30:02.478Z,73.52
2018-09-24T07:31:02.485Z,72.96
2018-09-24T07:32:02.496Z,73.33
2018-09-24T07:33:02.566Z,73.52
2018-09-24T07:34:02.552Z,73.72
2018-09-24T07:35:02.534Z,73.37
2018-09-24T07:36:02.518Z,73.18
2018-09-24T07:37:02.521Z,72.42
2018-09-24T07:38:05.057Z,72.48
2018-09-24T07:39:04.061Z,72.86
2018-09-24T07:40:04.055Z,72.32
2018-09-24T07:41:02.547Z,72.51
2018-09-24T07:42:02.574Z,72.42
2018-09-24T07:43:02.583Z,72.23
2018-09-24T07:44:02.590Z,72.13
2018-09-24T07:45:02.590Z,71.56
2018-09-24T07:46:02.618Z,71.27
2018-09-24T07:47:02.598Z,70.32
2018-09-24T07:48:02.602Z,70.89
2018-09-24T07:49:03.080Z,70.42
2018-09-24T07:50:02.673Z,70.42
2018-09-24T07:51:02.718Z,70.42
2018-09-24T07:52:02.918Z,71.66
2018-09-24T07:53:02.808Z,70.70
2018-09-24T07:54:02.653Z,70.13
2018-09-24T07:55:02.648Z,69.84
2018-09-24T07:56:02.850Z,69.37
2018-09-24T07:57:02.659Z,70.03
2018-09-24T07:58:02.690Z,70.13
2018-09-24T07:59:02.721Z,69.84
2018-09-24T08:00:02.692Z,70.22
2018-09-24T08:01:02.771Z,70.03
2018-09-24T08:02:02.817Z,69.27
2018-09-24T08:03:02.725Z,70.22
2018-09-24T08:04:02.726Z,70.32
2018-09-24T08:05:02.735Z,69.46
2018-09-24T08:06:02.943Z,69.27
2018-09-24T08:07:02.753Z,69.59
2018-09-24T08:08:02.741Z,70.26
2018-09-24T08:09:02.753Z,69.11
2018-09-24T08:10:02.779Z,69.11
2018-09-24T08:11:02.844Z,68.82
2018-09-24T08:12:02.810Z,68.26
2018-09-24T08:13:02.853Z,68.54
2018-09-24T08:14:02.779Z,68.35
2018-09-24T08:15:02.798Z,68.26
2018-09-24T08:16:02.830Z,68.44
2018-09-24T08:17:02.813Z,68.26
2018-09-24T08:18:02.846Z,67.49
2018-09-24T08:19:02.823Z,67.49
2018-09-24T08:20:03.673Z,67.40
2018-09-24T08:21:02.866Z,67.58
2018-09-24T08:22:02.856Z,67.21
2018-09-24T08:23:02.902Z,67.97
2018-09-24T08:24:02.859Z,67.40
2018-09-24T08:25:02.873Z,67.58
2018-09-24T08:26:02.979Z,66.53
2018-09-24T08:27:02.876Z,66.44
2018-09-24T08:28:02.939Z,66.35
2018-09-24T08:29:02.908Z,66.15
2018-09-24T08:30:02.906Z,66.15
2018-09-24T08:31:02.911Z,66.35
2018-09-24T08:32:02.917Z,66.72
2018-09-24T08:33:02.921Z,65.87
2018-09-24T08:34:03.297Z,66.63
2018-09-24T08:35:02.930Z,66.72
2018-09-24T08:36:02.946Z,66.63
2018-09-24T08:37:02.988Z,66.25
2018-09-24T08:38:02.989Z,65.58
2018-09-24T08:39:03.011Z,65.33
2018-09-24T08:40:02.986Z,65.90
2018-09-24T08:41:03.027Z,65.42
2018-09-24T08:42:03.022Z,65.52
2018-09-24T08:43:02.993Z,64.56
2018-09-24T08:44:03.053Z,64.56
2018-09-24T08:45:03.043Z,64.65
2018-09-24T08:46:03.046Z,64.56
2018-09-24T08:47:03.029Z,64.09
2018-09-24T08:48:03.054Z,63.89
2018-09-24T08:49:03.102Z,63.32
2018-09-24T08:50:03.089Z,63.99
2018-09-24T08:51:03.092Z,63.51
2018-09-24T08:52:03.113Z,62.65
2018-09-24T08:53:03.095Z,62.65
2018-09-24T08:54:03.088Z,63.16
2018-09-24T08:55:03.116Z,63.26
2018-09-24T08:56:03.115Z,63.03
2018-09-24T08:57:03.139Z,62.40
2018-09-24T08:58:03.115Z,62.75
2018-09-24T08:59:03.135Z,62.59
2018-09-24T09:00:03.128Z,62.59
2018-09-24T09:01:03.140Z,62.87
2018-09-24T09:02:03.180Z,62.11
2018-09-24T09:03:03.159Z,62.30
2018-09-24T09:04:03.165Z,61.35
2018-09-24T09:05:03.171Z,61.06
2018-09-24T09:06:07.537Z,60.68
2018-09-24T09:07:03.228Z,61.25
2018-09-24T09:08:03.198Z,61.16
2018-09-24T09:09:03.196Z,61.35
2018-09-24T09:10:03.240Z,61.82
2018-09-24T09:11:03.220Z,60.49
2018-09-24T09:12:03.255Z,60.30
2018-09-24T09:13:03.261Z,60.20
2018-09-24T09:14:03.244Z,60.68
2018-09-24T09:15:03.274Z,60.49
2018-09-24T09:16:03.262Z,60.20
2018-09-24T09:17:03.271Z,59.72
2018-09-24T09:18:03.307Z,60.20
2018-09-24T09:19:03.277Z,60.39
2018-09-24T09:20:03.311Z,60.20
2018-09-24T09:21:03.290Z,60.49
2018-09-24T09:22:03.340Z,60.68
2018-09-24T09:23:03.341Z,60.87
2018-09-24T09:24:03.376Z,60.58
2018-09-24T09:25:03.330Z,60.01
2018-09-24T09:26:03.344Z,60.30
2018-09-24T09:27:03.353Z,60.68
2018-09-24T09:28:03.413Z,60.87
2018-09-24T09:29:03.390Z,60.49
2018-09-24T09:30:03.379Z,59.81
2018-09-24T09:31:03.436Z,59.53
2018-09-24T09:32:03.389Z,59.63
2018-09-24T09:33:03.481Z,59.63
2018-09-24T09:34:03.431Z,60.20
2018-09-24T09:35:03.487Z,60.20
2018-09-24T09:36:03.568Z,60.30
2018-09-24T09:37:03.441Z,60.49
2018-09-24T09:38:03.442Z,60.30
2018-09-24T09:39:03.442Z,59.63
2018-09-24T09:40:03.511Z,60.01
2018-09-24T09:41:03.517Z,59.53
2018-09-24T09:42:03.483Z,59.05
2018-09-24T09:43:03.469Z,58.76
2018-09-24T09:44:03.481Z,59.53
2018-09-24T09:45:03.528Z,59.34
2018-09-24T09:46:03.844Z,59.24
2018-09-24T09:47:03.502Z,59.63
2018-09-24T09:48:03.522Z,59.53
2018-09-24T09:49:03.568Z,59.18
2018-09-24T09:50:03.528Z,59.44
2018-09-24T09:51:03.577Z,59.27
2018-09-24T09:52:03.551Z,58.70
2018-09-24T09:53:03.568Z,58.61
2018-09-24T09:54:03.588Z,59.47
2018-09-24T09:55:03.572Z,58.67
2018-09-24T09:56:03.619Z,57.43
2018-09-24T09:57:03.605Z,58.22
2018-09-24T09:58:03.592Z,58.29
2018-09-24T09:59:03.690Z,58.10
2018-09-24T10:00:03.646Z,58.32
2018-09-24T10:01:03.639Z,58.32
2018-09-24T10:02:03.656Z,57.93
2018-09-24T10:03:03.751Z,57.75
2018-09-24T10:04:03.674Z,58.22
2018-09-24T10:05:03.662Z,57.55
2018-09-24T10:06:03.691Z,57.26
2018-09-24T10:07:03.718Z,56.79
2018-09-24T10:08:03.743Z,57.55
2018-09-24T10:09:03.689Z,57.17
2018-09-24T10:10:03.697Z,56.60
2018-09-24T10:11:03.805Z,56.50
2018-09-24T10:12:03.733Z,56.69
2018-09-24T10:13:03.725Z,56.12
2018-09-24T10:14:03.782Z,56.40
2018-09-24T10:15:03.736Z,56.50
2018-09-24T10:16:03.756Z,55.93
2018-09-24T10:17:03.758Z,56.02
2018-09-24T10:18:03.807Z,56.12
2018-09-24T10:19:03.779Z,56.12
2018-09-24T10:20:03.787Z,56.02
2018-09-24T10:21:03.791Z,55.54
2018-09-24T10:22:03.836Z,55.90
2018-09-24T10:23:03.849Z,56.21
2018-09-24T10:24:04.565Z,56.31
2018-09-24T10:25:04.047Z,56.60
2018-09-24T10:26:03.849Z,57.07
2018-09-24T10:27:03.836Z,57.17
2018-09-24T10:28:03.888Z,56.60
2018-09-24T10:29:03.935Z,56.69
2018-09-24T10:30:03.865Z,56.21
2018-09-24T10:31:03.893Z,56.12
2018-09-24T10:32:03.876Z,56.69
2018-09-24T10:33:03.896Z,56.21
2018-09-24T10:34:03.917Z,56.12
2018-09-24T10:35:03.932Z,56.50
2018-09-24T10:36:04.577Z,56.88
2018-09-24T10:37:03.948Z,56.79
2018-09-24T10:38:03.934Z,56.40
2018-09-24T10:39:03.962Z,56.40
2018-09-24T10:40:03.990Z,56.69
2018-09-24T10:41:03.949Z,56.12
2018-09-24T10:42:03.954Z,56.40
2018-09-24T10:43:04.009Z,56.50
2018-09-24T10:44:03.986Z,56.60
2018-09-24T10:45:04.001Z,56.79
2018-09-24T10:46:04.097Z,56.82
2018-09-24T10:47:04.047Z,56.24
2018-09-24T10:48:04.023Z,56.72
2018-09-24T10:49:04.022Z,55.76
2018-09-24T10:50:04.034Z,55.86
2018-09-24T10:51:04.061Z,54.88
2018-09-24T10:52:04.043Z,54.49
2018-09-24T10:53:04.094Z,54.68
2018-09-24T10:54:04.095Z,54.59
2018-09-24T10:55:04.067Z,53.82
2018-09-24T10:56:04.088Z,54.21
2018-09-24T10:57:04.107Z,54.59
2018-09-24T10:58:04.108Z,54.68
2018-09-24T10:59:04.114Z,54.61
2018-09-24T11:00:04.112Z,54.61
2018-09-24T11:01:04.145Z,54.43
2018-09-24T11:02:04.151Z,53.18
2018-09-24T11:03:04.135Z,52.80
2018-09-24T11:04:04.146Z,52.80
2018-09-24T11:05:04.149Z,54.14
2018-09-24T11:06:04.164Z,53.85
2018-09-24T11:07:04.184Z,54.04
2018-09-24T11:08:04.178Z,54.04
2018-09-24T11:09:04.188Z,53.56
2018-09-24T11:10:04.361Z,52.80
2018-09-24T11:11:04.212Z,52.80
2018-09-24T11:12:04.218Z,52.42
2018-09-24T11:13:04.224Z,52.80
2018-09-24T11:14:04.236Z,52.13
2018-09-24T11:15:04.235Z,51.93
2018-09-24T11:16:04.401Z,50.21
2018-09-24T11:17:04.422Z,51.07
2018-09-24T11:18:04.326Z,51.27
2018-09-24T11:19:04.308Z,51.17
2018-09-24T11:20:04.276Z,50.12
2018-09-24T11:21:04.289Z,50.12
2018-09-24T11:22:04.342Z,50.41
2018-09-24T11:23:04.295Z,50.21
2018-09-24T11:24:04.321Z,50.98
2018-09-24T11:25:04.351Z,50.50
2018-09-24T11:26:04.359Z,50.60
2018-09-24T11:27:04.344Z,50.60
2018-09-24T11:28:04.333Z,50.72
2018-09-24T11:29:04.433Z,49.86
2018-09-24T11:30:04.395Z,50.05
2018-09-24T11:31:04.393Z,49.86
2018-09-24T11:32:04.382Z,49.95
2018-09-24T11:33:04.398Z,49.95
2018-09-24T11:34:04.428Z,49.29
2018-09-24T11:35:04.425Z,49.86
2018-09-24T11:36:04.427Z,49.29
2018-09-24T11:37:04.436Z,48.71
2018-09-24T11:38:04.441Z,48.80
2018-09-24T11:39:04.481Z,48.52
2018-09-24T11:40:04.503Z,49.29
2018-09-24T11:41:04.489Z,48.68
2018-09-24T11:42:04.516Z,47.80
2018-09-24T11:43:04.515Z,48.38
2018-09-24T11:44:04.486Z,49.43
2018-09-24T11:45:04.495Z,48.95
2018-09-24T11:46:04.504Z,48.44
2018-09-24T11:47:04.611Z,49.49
2018-09-24T11:48:04.559Z,49.57
2018-09-24T11:49:04.524Z,49.57
2018-09-24T11:50:04.548Z,50.33
2018-09-24T11:51:04.533Z,50.40
2018-09-24T11:52:04.622Z,51.00
2018-09-24T11:53:04.551Z,51.48
2018-09-24T11:54:04.587Z,51.86
2018-09-24T11:55:04.605Z,52.12
2018-09-24T11:56:04.589Z,52.59
2018-09-24T11:57:04.640Z,53.93
2018-09-24T11:58:04.636Z,55.08
2018-09-24T11:59:04.629Z,56.32
2018-09-24T12:00:04.638Z,58.51
2018-09-24T12:01:04.623Z,60.78
2018-09-24T12:02:04.700Z,62.21
2018-09-24T12:03:04.678Z,64.88
2018-09-24T12:04:04.643Z,67.83
2018-09-24T12:05:04.674Z,68.57
2018-09-24T12:06:04.698Z,69.62
2018-09-24T12:07:04.700Z,71.04
2018-09-24T12:08:04.683Z,72.06
2018-09-24T12:09:04.684Z,72.63
2018-09-24T12:10:04.731Z,72.82
2018-09-24T12:11:04.704Z,73.77
2018-09-24T12:12:04.702Z,74.54
2018-09-24T12:13:04.713Z,75.87
2018-09-24T12:14:04.717Z,75.40
2018-09-24T12:15:04.752Z,73.96
2018-09-24T12:16:04.728Z,73.49
2018-09-24T12:17:04.931Z,73.30
2018-09-24T12:18:04.806Z,74.44
2018-09-24T12:19:04.749Z,74.35
2018-09-24T12:20:04.758Z,73.87
2018-09-24T12:21:04.842Z,73.30
2018-09-24T12:22:04.787Z,73.68
2018-09-24T12:23:04.830Z,73.11
2018-09-24T12:24:04.847Z,72.72
2018-09-24T12:25:04.797Z,72.82
2018-09-24T12:26:04.800Z,72.82
2018-09-24T12:27:04.804Z,73.45
2018-09-24T12:28:04.863Z,73.17
2018-09-24T12:29:04.823Z,75.26
2018-09-24T12:30:04.822Z,75.74
2018-09-24T12:31:04.885Z,76.98
2018-09-24T12:32:04.844Z,77.93
2018-09-24T12:33:04.838Z,80.98
2018-09-24T12:34:04.862Z,81.36
2018-09-24T12:35:04.881Z,81.98
2018-09-24T12:36:04.871Z,82.18
2018-09-24T12:37:04.914Z,83.41
2018-09-24T12:38:04.876Z,81.79
2018-09-24T12:39:04.881Z,85.60
2018-09-24T12:40:04.885Z,85.03
2018-09-24T12:41:04.908Z,85.22
2018-09-24T12:42:04.915Z,85.18
2018-09-24T12:43:04.933Z,85.94
2018-09-24T12:44:04.920Z,86.51
2018-09-24T12:45:04.961Z,86.70
2018-09-24T12:46:04.922Z,86.22
2018-09-24T12:47:04.941Z,84.80
2018-09-24T12:48:04.981Z,86.70
2018-09-24T12:49:04.958Z,85.94
2018-09-24T12:50:04.991Z,88.23
2018-09-24T12:51:05.125Z,85.66
2018-09-24T12:52:04.960Z,87.27
2018-09-24T12:53:04.970Z,87.65